createdAt,value
2022-10-05T00:00:00.239Z,1.1
2022-10-05T00:05:00.331Z,1.1
2022-10-05T00:10:00.239Z,1.1
2022-10-05T00:15:00.219Z,1.1
2022-10-05T00:20:00.229Z,1.1
2022-10-05T00:25:00.214Z,1.1
2022-10-05T00:30:00.231Z,1.1
2022-10-05T00:35:00.235Z,1.1
2022-10-05T00:40:00.251Z,1.1
2022-10-05T00:45:00.249Z,1.1
2022-10-05T00:50:00.284Z,1.1
2022-10-05T00:55:00.250Z,1.1
2022-10-05T01:00:00.255Z,1.1
2022-10-05T01:05:00.262Z,1.1
2022-10-05T01:10:00.270Z,1.1
2022-10-05T01:15:00.311Z,1.1
2022-10-05T01:20:00.287Z,1.1
2022-10-05T01:25:00.295Z,1.1
2022-10-05T01:30:00.291Z,1.1
2022-10-05T01:35:00.298Z,1.1
2022-10-05T01:40:00.309Z,1.1
2022-10-05T01:45:00.305Z,1.1
2022-10-05T01:50:00.325Z,1.1
2022-10-05T01:55:00.358Z,1.1
2022-10-05T02:00:00.318Z,1.1
2022-10-05T02:05:02.610Z,1.1
2022-10-05T02:10:01.177Z,1.1
2022-10-05T02:15:01.174Z,1.1
2022-10-05T02:20:01.158Z,1.1
2022-10-05T02:25:01.172Z,1.1
2022-10-05T02:30:01.166Z,1.1
2022-10-05T02:35:01.180Z,1.1
2022-10-05T02:40:01.241Z,1.1
2022-10-05T02:45:01.194Z,1.1
2022-10-05T02:50:01.194Z,1.1
2022-10-05T02:55:01.317Z,1.1
2022-10-05T03:00:01.203Z,1.1
2022-10-05T03:05:01.233Z,1.1
2022-10-05T03:10:01.537Z,1.1
2022-10-05T03:15:01.299Z,1.1
2022-10-05T03:20:01.330Z,1.1
2022-10-05T03:25:01.349Z,1.1
2022-10-05T03:30:01.356Z,1.1
2022-10-05T03:35:01.325Z,1.1
2022-10-05T03:40:01.249Z,1.1
2022-10-05T03:45:01.242Z,1.1
2022-10-05T03:50:01.293Z,1.1
2022-10-05T03:55:01.265Z,1.1
2022-10-05T04:00:01.261Z,1.1
2022-10-05T04:05:01.276Z,1.1
2022-10-05T04:10:01.300Z,1.1
2022-10-05T04:15:01.283Z,1.1
2022-10-05T04:20:01.285Z,1.1
2022-10-05T04:25:01.335Z,1.1
2022-10-05T04:30:01.350Z,1.1
2022-10-05T04:35:01.300Z,1.1
2022-10-05T04:40:00.164Z,1.1
2022-10-05T04:50:00.205Z,1.1
2022-10-05T04:55:00.223Z,1.1
2022-10-05T05:00:00.225Z,1.1
2022-10-05T05:05:00.222Z,1.2
2022-10-05T05:10:00.222Z,3
2022-10-05T05:15:00.231Z,7.9
2022-10-05T05:20:00.225Z,19
2022-10-05T05:25:00.195Z,38.4
2022-10-05T05:30:00.260Z,62.7
2022-10-05T05:35:00.242Z,94.1
2022-10-05T05:40:00.257Z,126.9
2022-10-05T05:45:00.226Z,167.1
2022-10-05T05:50:06.381Z,197.5
2022-10-05T05:55:00.249Z,233.5
2022-10-05T06:00:00.305Z,318.7
2022-10-05T06:05:00.290Z,359.1
2022-10-05T06:10:00.292Z,424.6
2022-10-05T06:15:00.300Z,600.6
2022-10-05T06:20:05.019Z,490.1
2022-10-05T06:25:00.296Z,579.4
2022-10-05T06:30:00.299Z,676.9
2022-10-05T06:35:00.311Z,552.4
2022-10-05T06:40:01.414Z,565.7
2022-10-05T06:45:00.310Z,565.7
2022-10-05T06:50:00.308Z,772.1
2022-10-05T06:55:00.334Z,934.9
2022-10-05T07:00:00.329Z,923.7
2022-10-05T07:05:00.335Z,790.8
2022-10-05T07:10:00.350Z,912.8
2022-10-05T07:15:00.352Z,1004.4
2022-10-05T07:20:00.359Z,957.5
2022-10-05T07:25:00.357Z,957.5
2022-10-05T07:30:00.362Z,1720.4
2022-10-05T07:35:00.367Z,1962.2
2022-10-05T07:40:01.152Z,1620.5
2022-10-05T07:45:00.364Z,2265.1
2022-10-05T07:50:00.394Z,2133.6
2022-10-05T07:55:00.352Z,2614.6
2022-10-05T08:00:00.388Z,2710.1
2022-10-05T08:05:01.867Z,2742.6
2022-10-05T08:10:00.363Z,2646
2022-10-05T08:15:00.405Z,2646
2022-10-05T08:20:00.374Z,2842.8
2022-10-05T08:25:00.405Z,3091.1
2022-10-05T08:30:00.415Z,2946.7
2022-10-05T08:35:00.418Z,2742.6
2022-10-05T08:40:00.432Z,2376
2022-10-05T08:45:00.432Z,2319.9
2022-10-05T08:50:00.437Z,3128.2
2022-10-05T08:55:00.469Z,2462.8
2022-10-05T09:00:00.410Z,2982.2
2022-10-05T09:05:00.447Z,3018
2022-10-05T09:10:01.961Z,3242.6
2022-10-05T09:15:20.589Z,3165.8
2022-10-05T09:20:00.484Z,2946.7
2022-10-05T09:25:00.470Z,3281.6
2022-10-05T09:30:00.501Z,3128.2
2022-10-05T09:35:00.466Z,2946.7
2022-10-05T09:40:01.513Z,3401.4
2022-10-05T09:45:00.505Z,2842.8
2022-10-05T09:50:00.456Z,2946.7
2022-10-05T09:55:00.516Z,2710.1
2022-10-05T10:00:00.498Z,2083.2
2022-10-05T10:05:00.521Z,2133.6
2022-10-05T10:10:00.496Z,2159.2
2022-10-05T10:15:02.858Z,2185.2
2022-10-05T10:20:00.555Z,2211.5
2022-10-05T10:25:00.540Z,2376
2022-10-05T10:30:00.622Z,2462.8
2022-10-05T10:35:00.483Z,2462.8
2022-10-05T10:40:00.390Z,2433.5
2022-10-05T10:45:00.233Z,2492.4
2022-10-05T10:50:00.178Z,2552.8
2022-10-05T10:55:00.144Z,2492.4
2022-10-05T11:00:00.162Z,2583.5
2022-10-05T11:05:00.142Z,2614.6
2022-10-05T11:10:00.157Z,2583.5
2022-10-05T11:15:00.158Z,2614.6
2022-10-05T11:20:04.805Z,2522.4
2022-10-05T11:25:00.175Z,2583.5
2022-10-05T11:30:00.189Z,2433.5
2022-10-05T11:35:00.173Z,2492.4
2022-10-05T11:40:00.176Z,2552.8
2022-10-05T11:45:00.211Z,2462.8
2022-10-05T11:50:00.183Z,2462.8
2022-10-05T11:55:11.682Z,2462.8
2022-10-05T12:00:00.234Z,2433.5
2022-10-05T12:05:00.204Z,2404.6
2022-10-05T12:10:00.205Z,2433.5
2022-10-05T12:15:00.209Z,2319.9
2022-10-05T12:20:00.218Z,2319.9
2022-10-05T12:25:00.229Z,2292.3
2022-10-05T12:30:00.247Z,2238.1
2022-10-05T12:35:02.150Z,2211.5
2022-10-05T12:40:00.235Z,2108.2
2022-10-05T12:45:00.260Z,2009.8
2022-10-05T12:50:00.237Z,1985.8
2022-10-05T12:55:00.255Z,1915.9
2022-10-05T13:00:00.291Z,1870.6
2022-10-05T13:05:00.271Z,1804.7
2022-10-05T13:10:00.286Z,1741
2022-10-05T13:15:00.269Z,1679.7
2022-10-05T13:20:00.291Z,1620.5
2022-10-05T13:25:00.278Z,1490.4
2022-10-05T13:30:00.402Z,1455.2
2022-10-05T13:35:00.328Z,1526.4
2022-10-05T13:40:00.427Z,1620.5
2022-10-05T13:45:00.324Z,1679.7
2022-10-05T13:50:00.514Z,1804.7
2022-10-05T13:55:00.310Z,1962.2
2022-10-05T14:00:00.427Z,1985.8
2022-10-05T14:05:00.349Z,2083.2
2022-10-05T14:10:00.388Z,1938.9
2022-10-05T14:15:00.354Z,1915.9
2022-10-05T14:20:00.355Z,1915.9
2022-10-05T14:25:00.341Z,1870.6
2022-10-05T14:30:00.400Z,1962.2
2022-10-05T14:35:00.359Z,2009.8
2022-10-05T14:40:00.359Z,1826.4
2022-10-05T14:45:00.376Z,1455.2
2022-10-05T14:50:00.363Z,1322.4
2022-10-05T14:55:00.384Z,1260.7
2022-10-05T15:00:00.392Z,1322.4
2022-10-05T15:05:00.392Z,1354.4
2022-10-05T15:10:00.387Z,1354.4
2022-10-05T15:15:00.395Z,1322.4
2022-10-05T15:20:00.407Z,1370.7
2022-10-05T15:25:00.398Z,1370.7
2022-10-05T15:30:00.412Z,1437.9
2022-10-05T15:35:00.406Z,1526.4
2022-10-05T15:40:00.449Z,1437.9
2022-10-05T15:45:00.422Z,1187.5
2022-10-05T15:50:00.429Z,1079.1
2022-10-05T15:55:00.432Z,1053.6
2022-10-05T16:00:00.447Z,934.9
2022-10-05T16:05:04.594Z,859.8
2022-10-05T16:10:00.464Z,790.8
2022-10-05T16:15:00.456Z,753.8
2022-10-05T16:20:00.467Z,736
2022-10-05T16:25:00.495Z,653
2022-10-05T16:30:00.482Z,532.9
2022-10-05T16:35:00.471Z,456.2
2022-10-05T16:40:00.289Z,376.7
2022-10-05T16:45:00.201Z,296.6
2022-10-05T16:50:00.115Z,212.2
2022-10-05T16:55:00.133Z,148.2
2022-10-05T17:00:00.166Z,104.8
2022-10-05T17:05:00.148Z,51.7
2022-10-05T17:10:00.174Z,22.9
2022-10-05T17:15:00.144Z,9
2022-10-05T17:20:00.172Z,3.5
2022-10-05T17:25:00.200Z,1.3
2022-10-05T17:30:00.175Z,1.1
2022-10-05T17:35:00.176Z,1.1
2022-10-05T17:40:00.211Z,1.1
2022-10-05T17:45:00.183Z,1.1
2022-10-05T17:50:00.189Z,1.1
2022-10-05T17:55:00.192Z,1.1
2022-10-05T18:00:00.347Z,1.1
2022-10-05T18:05:00.210Z,1.1
2022-10-05T18:10:00.359Z,1.1
2022-10-05T18:15:00.222Z,1.1
2022-10-05T18:20:00.223Z,1.1
2022-10-05T18:25:00.227Z,1.1
2022-10-05T18:30:00.231Z,1.1
2022-10-05T18:35:02.129Z,1.1
2022-10-05T18:40:00.261Z,1.1
2022-10-05T18:45:00.255Z,1.1
2022-10-05T18:50:00.277Z,1.1
2022-10-05T18:55:00.250Z,1.1
2022-10-05T19:00:00.265Z,1.1
2022-10-05T19:05:00.262Z,1.1
2022-10-05T19:10:00.273Z,1.1
2022-10-05T19:15:00.279Z,1.1
2022-10-05T19:20:00.292Z,1.1
2022-10-05T19:25:00.297Z,1.1
2022-10-05T19:30:00.290Z,1.1
2022-10-05T19:35:00.296Z,1.1
2022-10-05T19:40:00.647Z,1.1
2022-10-05T19:45:00.311Z,1.1
2022-10-05T19:50:00.320Z,1.1
2022-10-05T19:55:00.337Z,1.1
2022-10-05T20:00:00.317Z,1.1
2022-10-05T20:05:00.345Z,1.1
2022-10-05T20:10:00.357Z,1.1
2022-10-05T20:15:00.329Z,1.1
2022-10-05T20:20:00.333Z,1.1
2022-10-05T20:25:00.346Z,1.1
2022-10-05T20:30:00.343Z,1.1
2022-10-05T20:35:00.367Z,1.1
2022-10-05T20:40:00.393Z,1.1
2022-10-05T20:45:00.409Z,1.1
2022-10-05T20:50:00.384Z,1.1
2022-10-05T20:55:00.389Z,1.1
2022-10-05T21:00:00.381Z,1.1
2022-10-05T21:05:00.454Z,1.1
2022-10-05T21:10:00.383Z,1.1
2022-10-05T21:15:00.423Z,1.1
2022-10-05T21:20:00.440Z,1.1
2022-10-05T21:25:00.478Z,1.1
2022-10-05T21:30:00.597Z,1.1
2022-10-05T21:35:00.574Z,1.1
2022-10-05T21:40:00.513Z,1.1
2022-10-05T21:45:00.574Z,1.1
2022-10-05T21:50:00.465Z,1.1
2022-10-05T21:55:00.470Z,1.1
2022-10-05T22:00:00.450Z,1.1
2022-10-05T22:05:00.439Z,1.1
2022-10-05T22:10:00.475Z,1.1
2022-10-05T22:15:00.463Z,1.1
2022-10-05T22:20:00.493Z,1.1
2022-10-05T22:25:00.459Z,1.1
2022-10-05T22:30:00.515Z,1.1
2022-10-05T22:35:00.483Z,1.1
2022-10-05T22:40:00.360Z,1.1
2022-10-05T22:45:00.214Z,1.1
2022-10-05T22:50:00.129Z,1.1
2022-10-05T22:55:00.134Z,1.1
2022-10-05T23:00:00.146Z,1.1
2022-10-05T23:05:00.158Z,1.1
2022-10-05T23:10:00.147Z,1.1
2022-10-05T23:15:00.167Z,1.1
2022-10-05T23:20:00.157Z,1.1
2022-10-05T23:25:00.178Z,1.1
2022-10-05T23:30:00.193Z,1.1
2022-10-05T23:35:00.172Z,1.1
2022-10-05T23:40:00.177Z,1.1
2022-10-05T23:45:00.190Z,1.1
2022-10-05T23:50:00.221Z,1.1
2022-10-05T23:55:00.196Z,1.1
